Atlas, Michigan
Current Conditions -  °F | °C
As of 12:53 PM on Saturday 20 Dec 2014 (Local Time) from KFNT Reporting Station
Overcast Overcast  
Wind Chill: 32°   Ceiling: 2200
Heat Index: 32°   Visibility: 10mi
Dew Point: 22°   Wind: 0mph
Humidity: 66%   Direction: NA
Pressure: 30.27"   Gusts: NA
Location:  42.94°N, 83.53°W
Report Text: KFNT 201753Z 00000KT 10SM OVC022 00/M06 A3027 RMK AO2 SLP263 I6000 T00001056 10000 21078 58010
Loading
Personal Weather Stations






























Interactive Weather Map New forecast layout! Learn more

10-Day Weather Forecast

Advertisements
Track Severe Weather on mobile